sensor_id;sensor_type;location;lat;lon;timestamp;temperature;humidity
75457;SHT31;64036;48.266;14.192;2023-08-31T00:00:45;14.65;79.30
75457;SHT31;64036;48.266;14.192;2023-08-31T00:03:11;14.62;79.30
75457;SHT31;64036;48.266;14.192;2023-08-31T00:05:40;14.58;79.25
75457;SHT31;64036;48.266;14.192;2023-08-31T00:08:07;14.55;79.26
75457;SHT31;64036;48.266;14.192;2023-08-31T00:10:34;14.51;79.16
75457;SHT31;64036;48.266;14.192;2023-08-31T00:13:03;14.47;79.24
75457;SHT31;64036;48.266;14.192;2023-08-31T00:15:31;14.44;79.40
75457;SHT31;64036;48.266;14.192;2023-08-31T00:18:01;14.44;79.53
75457;SHT31;64036;48.266;14.192;2023-08-31T00:20:31;14.37;79.32
75457;SHT31;64036;48.266;14.192;2023-08-31T00:22:58;14.35;79.58
75457;SHT31;64036;48.266;14.192;2023-08-31T00:25:25;14.34;79.64
75457;SHT31;64036;48.266;14.192;2023-08-31T00:27:51;14.28;79.60
75457;SHT31;64036;48.266;14.192;2023-08-31T00:30:18;14.20;79.65
75457;SHT31;64036;48.266;14.192;2023-08-31T00:32:45;14.13;79.75
75457;SHT31;64036;48.266;14.192;2023-08-31T00:35:12;14.09;79.85
75457;SHT31;64036;48.266;14.192;2023-08-31T00:37:38;14.07;79.90
75457;SHT31;64036;48.266;14.192;2023-08-31T00:40:04;14.05;79.98
75457;SHT31;64036;48.266;14.192;2023-08-31T00:42:32;14.04;80.08
75457;SHT31;64036;48.266;14.192;2023-08-31T00:44:57;14.04;80.23
75457;SHT31;64036;48.266;14.192;2023-08-31T00:47:23;14.05;80.26
75457;SHT31;64036;48.266;14.192;2023-08-31T00:49:49;14.04;80.32
75457;SHT31;64036;48.266;14.192;2023-08-31T00:52:15;14.01;80.40
75457;SHT31;64036;48.266;14.192;2023-08-31T00:54:42;13.96;80.50
75457;SHT31;64036;48.266;14.192;2023-08-31T00:57:08;13.94;80.64
75457;SHT31;64036;48.266;14.192;2023-08-31T00:59:34;13.90;80.69
75457;SHT31;64036;48.266;14.192;2023-08-31T01:05:33;13.84;80.82
75457;SHT31;64036;48.266;14.192;2023-08-31T01:08:08;13.80;80.88
75457;SHT31;64036;48.266;14.192;2023-08-31T01:11:10;13.78;80.87
75457;SHT31;64036;48.266;14.192;2023-08-31T01:13:57;13.76;81.06
75457;SHT31;64036;48.266;14.192;2023-08-31T01:16:30;13.76;81.25
75457;SHT31;64036;48.266;14.192;2023-08-31T01:19:06;13.77;81.41
75457;SHT31;64036;48.266;14.192;2023-08-31T01:21:57;13.81;81.77
75457;SHT31;64036;48.266;14.192;2023-08-31T01:24:28;13.84;81.90
75457;SHT31;64036;48.266;14.192;2023-08-31T01:26:56;13.88;81.91
75457;SHT31;64036;48.266;14.192;2023-08-31T01:29:22;13.92;81.99
75457;SHT31;64036;48.266;14.192;2023-08-31T01:31:48;13.91;81.73
75457;SHT31;64036;48.266;14.192;2023-08-31T01:34:14;13.90;81.73
75457;SHT31;64036;48.266;14.192;2023-08-31T01:36:42;13.92;81.71
75457;SHT31;64036;48.266;14.192;2023-08-31T01:42:43;13.93;81.60
75457;SHT31;64036;48.266;14.192;2023-08-31T01:45:10;13.94;81.60
75457;SHT31;64036;48.266;14.192;2023-08-31T01:47:42;13.95;81.54
75457;SHT31;64036;48.266;14.192;2023-08-31T01:50:08;13.96;81.51
75457;SHT31;64036;48.266;14.192;2023-08-31T01:52:34;13.96;81.55
75457;SHT31;64036;48.266;14.192;2023-08-31T01:55:00;13.95;81.61
75457;SHT31;64036;48.266;14.192;2023-08-31T01:57:25;13.95;81.66
75457;SHT31;64036;48.266;14.192;2023-08-31T01:59:51;13.96;81.70
75457;SHT31;64036;48.266;14.192;2023-08-31T02:02:17;13.97;81.70
75457;SHT31;64036;48.266;14.192;2023-08-31T02:04:43;13.96;81.67
75457;SHT31;64036;48.266;14.192;2023-08-31T02:07:09;13.94;81.78
75457;SHT31;64036;48.266;14.192;2023-08-31T02:09:34;13.95;81.81
75457;SHT31;64036;48.266;14.192;2023-08-31T02:12:00;13.95;81.81
75457;SHT31;64036;48.266;14.192;2023-08-31T02:14:26;13.97;81.89
75457;SHT31;64036;48.266;14.192;2023-08-31T02:16:52;13.97;82.04
75457;SHT31;64036;48.266;14.192;2023-08-31T02:19:17;13.96;82.21
75457;SHT31;64036;48.266;14.192;2023-08-31T02:21:43;13.97;82.29
75457;SHT31;64036;48.266;14.192;2023-08-31T02:24:08;13.99;82.26
75457;SHT31;64036;48.266;14.192;2023-08-31T02:26:37;13.95;82.19
75457;SHT31;64036;48.266;14.192;2023-08-31T02:29:03;13.95;82.39
75457;SHT31;64036;48.266;14.192;2023-08-31T02:31:29;13.96;82.49
75457;SHT31;64036;48.266;14.192;2023-08-31T02:33:55;13.98;82.53
75457;SHT31;64036;48.266;14.192;2023-08-31T02:36:20;14.02;82.49
75457;SHT31;64036;48.266;14.192;2023-08-31T02:38:46;14.05;82.49
75457;SHT31;64036;48.266;14.192;2023-08-31T02:41:12;14.08;82.50
75457;SHT31;64036;48.266;14.192;2023-08-31T02:43:38;14.11;82.50
75457;SHT31;64036;48.266;14.192;2023-08-31T02:46:04;14.14;82.50
75457;SHT31;64036;48.266;14.192;2023-08-31T02:48:32;14.17;82.54
75457;SHT31;64036;48.266;14.192;2023-08-31T02:50:58;14.18;82.55
75457;SHT31;64036;48.266;14.192;2023-08-31T02:53:26;14.17;82.59
75457;SHT31;64036;48.266;14.192;2023-08-31T02:55:53;14.18;82.67
75457;SHT31;64036;48.266;14.192;2023-08-31T02:58:18;14.20;82.66
75457;SHT31;64036;48.266;14.192;2023-08-31T03:00:44;14.21;82.70
75457;SHT31;64036;48.266;14.192;2023-08-31T03:03:13;14.22;82.73
75457;SHT31;64036;48.266;14.192;2023-08-31T03:05:40;14.22;82.80
75457;SHT31;64036;48.266;14.192;2023-08-31T03:08:06;14.21;82.79
75457;SHT31;64036;48.266;14.192;2023-08-31T03:10:32;14.23;82.82
75457;SHT31;64036;48.266;14.192;2023-08-31T03:12:57;14.25;82.86
75457;SHT31;64036;48.266;14.192;2023-08-31T03:15:23;14.27;82.82
75457;SHT31;64036;48.266;14.192;2023-08-31T03:17:49;14.28;82.79
75457;SHT31;64036;48.266;14.192;2023-08-31T03:20:14;14.28;82.70
75457;SHT31;64036;48.266;14.192;2023-08-31T03:22:40;14.28;82.70
75457;SHT31;64036;48.266;14.192;2023-08-31T03:25:06;14.30;82.63
75457;SHT31;64036;48.266;14.192;2023-08-31T03:27:33;14.32;82.60
75457;SHT31;64036;48.266;14.192;2023-08-31T03:29:58;14.34;82.53
75457;SHT31;64036;48.266;14.192;2023-08-31T03:32:24;14.34;82.35
75457;SHT31;64036;48.266;14.192;2023-08-31T03:34:50;14.29;82.30
75457;SHT31;64036;48.266;14.192;2023-08-31T03:37:16;14.26;82.22
75457;SHT31;64036;48.266;14.192;2023-08-31T03:39:42;14.26;82.25
75457;SHT31;64036;48.266;14.192;2023-08-31T03:42:08;14.26;82.26
75457;SHT31;64036;48.266;14.192;2023-08-31T03:44:35;14.26;82.20
75457;SHT31;64036;48.266;14.192;2023-08-31T03:47:02;14.27;82.15
75457;SHT31;64036;48.266;14.192;2023-08-31T03:49:28;14.27;82.08
75457;SHT31;64036;48.266;14.192;2023-08-31T03:51:55;14.26;82.00
75457;SHT31;64036;48.266;14.192;2023-08-31T03:54:20;14.24;81.97
75457;SHT31;64036;48.266;14.192;2023-08-31T03:56:46;14.20;81.98
75457;SHT31;64036;48.266;14.192;2023-08-31T03:59:12;14.16;81.84
75457;SHT31;64036;48.266;14.192;2023-08-31T04:01:38;14.13;81.81
75457;SHT31;64036;48.266;14.192;2023-08-31T04:04:04;14.11;81.81
75457;SHT31;64036;48.266;14.192;2023-08-31T04:06:30;14.03;81.59
75457;SHT31;64036;48.266;14.192;2023-08-31T04:08:55;14.00;81.77
75457;SHT31;64036;48.266;14.192;2023-08-31T04:11:21;13.97;81.80
75457;SHT31;64036;48.266;14.192;2023-08-31T04:13:47;13.95;81.83
75457;SHT31;64036;48.266;14.192;2023-08-31T04:16:13;13.90;81.85
75457;SHT31;64036;48.266;14.192;2023-08-31T04:18:39;13.86;81.73
75457;SHT31;64036;48.266;14.192;2023-08-31T04:21:05;13.83;81.70
75457;SHT31;64036;48.266;14.192;2023-08-31T04:23:31;13.75;81.69
75457;SHT31;64036;48.266;14.192;2023-08-31T04:25:57;13.71;81.67
75457;SHT31;64036;48.266;14.192;2023-08-31T04:28:23;13.62;81.70
75457;SHT31;64036;48.266;14.192;2023-08-31T04:30:49;13.60;81.72
75457;SHT31;64036;48.266;14.192;2023-08-31T04:33:15;13.59;81.56
75457;SHT31;64036;48.266;14.192;2023-08-31T04:35:41;13.56;81.40
75457;SHT31;64036;48.266;14.192;2023-08-31T04:38:07;13.54;81.39
75457;SHT31;64036;48.266;14.192;2023-08-31T04:40:33;13.54;81.32
75457;SHT31;64036;48.266;14.192;2023-08-31T04:42:59;13.54;81.23
75457;SHT31;64036;48.266;14.192;2023-08-31T04:45:25;13.60;81.41
75457;SHT31;64036;48.266;14.192;2023-08-31T04:47:51;13.71;81.67
75457;SHT31;64036;48.266;14.192;2023-08-31T04:50:17;13.78;81.86
75457;SHT31;64036;48.266;14.192;2023-08-31T04:52:43;13.85;82.04
75457;SHT31;64036;48.266;14.192;2023-08-31T04:55:08;13.89;82.20
75457;SHT31;64036;48.266;14.192;2023-08-31T04:57:37;13.93;82.14
75457;SHT31;64036;48.266;14.192;2023-08-31T05:00:03;13.96;82.12
75457;SHT31;64036;48.266;14.192;2023-08-31T05:02:32;14.02;82.15
75457;SHT31;64036;48.266;14.192;2023-08-31T05:04:58;14.12;82.10
75457;SHT31;64036;48.266;14.192;2023-08-31T05:07:24;14.18;82.01
75457;SHT31;64036;48.266;14.192;2023-08-31T05:09:49;14.23;81.99
75457;SHT31;64036;48.266;14.192;2023-08-31T05:12:15;14.26;82.00
75457;SHT31;64036;48.266;14.192;2023-08-31T05:14:42;14.32;81.87
75457;SHT31;64036;48.266;14.192;2023-08-31T05:17:08;14.33;81.90
75457;SHT31;64036;48.266;14.192;2023-08-31T05:19:34;14.55;82.16
75457;SHT31;64036;48.266;14.192;2023-08-31T05:22:00;14.91;82.12
75457;SHT31;64036;48.266;14.192;2023-08-31T05:24:27;15.11;81.77
75457;SHT31;64036;48.266;14.192;2023-08-31T05:26:52;15.29;81.61
75457;SHT31;64036;48.266;14.192;2023-08-31T05:29:18;15.37;81.52
75457;SHT31;64036;48.266;14.192;2023-08-31T05:31:43;15.35;81.60
75457;SHT31;64036;48.266;14.192;2023-08-31T05:34:09;15.33;81.63
75457;SHT31;64036;48.266;14.192;2023-08-31T05:36:35;15.30;81.61
75457;SHT31;64036;48.266;14.192;2023-08-31T05:39:02;15.27;81.69
75457;SHT31;64036;48.266;14.192;2023-08-31T05:41:28;15.29;81.87
75457;SHT31;64036;48.266;14.192;2023-08-31T05:43:53;15.29;81.81
75457;SHT31;64036;48.266;14.192;2023-08-31T05:46:19;15.24;81.75
75457;SHT31;64036;48.266;14.192;2023-08-31T05:48:45;15.16;81.73
75457;SHT31;64036;48.266;14.192;2023-08-31T05:51:10;15.06;81.88
75457;SHT31;64036;48.266;14.192;2023-08-31T05:53:36;14.98;82.04
75457;SHT31;64036;48.266;14.192;2023-08-31T05:56:02;14.89;82.11
75457;SHT31;64036;48.266;14.192;2023-08-31T05:58:32;14.82;82.25
75457;SHT31;64036;48.266;14.192;2023-08-31T06:01:03;14.81;82.39
75457;SHT31;64036;48.266;14.192;2023-08-31T06:03:29;14.82;82.39
75457;SHT31;64036;48.266;14.192;2023-08-31T06:05:56;14.86;82.44
75457;SHT31;64036;48.266;14.192;2023-08-31T06:08:23;14.88;82.48
75457;SHT31;64036;48.266;14.192;2023-08-31T06:10:49;14.98;82.63
75457;SHT31;64036;48.266;14.192;2023-08-31T06:13:15;15.14;82.64
75457;SHT31;64036;48.266;14.192;2023-08-31T06:15:41;15.30;82.46
75457;SHT31;64036;48.266;14.192;2023-08-31T06:18:07;15.44;82.14
75457;SHT31;64036;48.266;14.192;2023-08-31T06:20:32;15.62;81.87
75457;SHT31;64036;48.266;14.192;2023-08-31T06:23:01;15.83;81.53
75457;SHT31;64036;48.266;14.192;2023-08-31T06:25:28;16.02;81.17
75457;SHT31;64036;48.266;14.192;2023-08-31T06:27:54;16.22;80.69
75457;SHT31;64036;48.266;14.192;2023-08-31T06:30:19;16.46;80.28
75457;SHT31;64036;48.266;14.192;2023-08-31T06:32:45;16.78;79.92
75457;SHT31;64036;48.266;14.192;2023-08-31T06:35:13;17.16;79.54
75457;SHT31;64036;48.266;14.192;2023-08-31T06:37:42;17.47;78.91
75457;SHT31;64036;48.266;14.192;2023-08-31T06:40:08;17.82;78.01
75457;SHT31;64036;48.266;14.192;2023-08-31T06:42:38;17.99;77.56
75457;SHT31;64036;48.266;14.192;2023-08-31T06:45:05;18.28;77.52
75457;SHT31;64036;48.266;14.192;2023-08-31T06:47:32;18.80;76.76
75457;SHT31;64036;48.266;14.192;2023-08-31T06:49:59;19.52;75.40
75457;SHT31;64036;48.266;14.192;2023-08-31T06:52:28;19.76;74.53
75457;SHT31;64036;48.266;14.192;2023-08-31T06:54:53;19.90;73.59
75457;SHT31;64036;48.266;14.192;2023-08-31T06:57:25;20.05;73.11
75457;SHT31;64036;48.266;14.192;2023-08-31T06:59:53;20.34;72.59
75457;SHT31;64036;48.266;14.192;2023-08-31T07:02:22;20.77;71.49
75457;SHT31;64036;48.266;14.192;2023-08-31T07:04:51;21.25;69.65
75457;SHT31;64036;48.266;14.192;2023-08-31T07:07:17;21.62;68.86
75457;SHT31;64036;48.266;14.192;2023-08-31T07:09:43;22.90;67.82
75457;SHT31;64036;48.266;14.192;2023-08-31T07:12:11;24.14;64.36
75457;SHT31;64036;48.266;14.192;2023-08-31T07:14:37;24.97;63.49
75457;SHT31;64036;48.266;14.192;2023-08-31T07:17:03;26.01;61.09
75457;SHT31;64036;48.266;14.192;2023-08-31T07:19:29;26.30;59.49
75457;SHT31;64036;48.266;14.192;2023-08-31T07:21:55;26.85;57.30
75457;SHT31;64036;48.266;14.192;2023-08-31T07:24:22;27.59;55.77
75457;SHT31;64036;48.266;14.192;2023-08-31T07:26:48;28.46;54.08
75457;SHT31;64036;48.266;14.192;2023-08-31T07:29:13;29.48;52.62
75457;SHT31;64036;48.266;14.192;2023-08-31T07:31:39;30.45;50.31
75457;SHT31;64036;48.266;14.192;2023-08-31T07:34:05;31.12;48.20
75457;SHT31;64036;48.266;14.192;2023-08-31T07:36:30;31.63;46.51
75457;SHT31;64036;48.266;14.192;2023-08-31T07:38:56;31.87;45.28
75457;SHT31;64036;48.266;14.192;2023-08-31T07:41:22;31.40;44.04
75457;SHT31;64036;48.266;14.192;2023-08-31T07:43:48;30.78;44.49
75457;SHT31;64036;48.266;14.192;2023-08-31T07:46:14;30.55;44.49
75457;SHT31;64036;48.266;14.192;2023-08-31T07:48:41;30.72;44.30
75457;SHT31;64036;48.266;14.192;2023-08-31T07:51:07;31.38;43.78
75457;SHT31;64036;48.266;14.192;2023-08-31T07:53:33;32.03;42.97
75457;SHT31;64036;48.266;14.192;2023-08-31T07:55:59;32.31;42.15
75457;SHT31;64036;48.266;14.192;2023-08-31T07:58:25;32.48;40.11
75457;SHT31;64036;48.266;14.192;2023-08-31T08:00:53;32.21;40.01
75457;SHT31;64036;48.266;14.192;2023-08-31T08:03:22;31.38;41.04
75457;SHT31;64036;48.266;14.192;2023-08-31T08:05:49;30.98;42.00
75457;SHT31;64036;48.266;14.192;2023-08-31T08:08:15;30.06;42.83
75457;SHT31;64036;48.266;14.192;2023-08-31T08:10:40;29.49;43.77
75457;SHT31;64036;48.266;14.192;2023-08-31T08:13:08;29.83;43.57
75457;SHT31;64036;48.266;14.192;2023-08-31T08:15:34;30.08;42.99
75457;SHT31;64036;48.266;14.192;2023-08-31T08:18:00;29.51;44.32
75457;SHT31;64036;48.266;14.192;2023-08-31T08:20:26;28.60;44.84
75457;SHT31;64036;48.266;14.192;2023-08-31T08:22:53;28.60;45.88
75457;SHT31;64036;48.266;14.192;2023-08-31T08:25:19;28.61;45.28
75457;SHT31;64036;48.266;14.192;2023-08-31T08:27:46;29.16;45.12
75457;SHT31;64036;48.266;14.192;2023-08-31T08:30:12;29.32;43.88
75457;SHT31;64036;48.266;14.192;2023-08-31T08:32:40;28.44;45.01
75457;SHT31;64036;48.266;14.192;2023-08-31T08:35:07;27.56;46.13
75457;SHT31;64036;48.266;14.192;2023-08-31T08:37:33;26.86;47.04
75457;SHT31;64036;48.266;14.192;2023-08-31T08:39:59;26.83;47.97
75457;SHT31;64036;48.266;14.192;2023-08-31T08:42:26;27.29;47.53
75457;SHT31;64036;48.266;14.192;2023-08-31T08:44:56;26.98;47.85
75457;SHT31;64036;48.266;14.192;2023-08-31T08:47:23;26.43;48.47
75457;SHT31;64036;48.266;14.192;2023-08-31T08:49:53;25.94;49.10
75457;SHT31;64036;48.266;14.192;2023-08-31T08:52:20;25.49;49.46
75457;SHT31;64036;48.266;14.192;2023-08-31T08:54:47;25.04;50.27
75457;SHT31;64036;48.266;14.192;2023-08-31T08:57:14;25.20;50.53
75457;SHT31;64036;48.266;14.192;2023-08-31T08:59:40;25.57;50.09
75457;SHT31;64036;48.266;14.192;2023-08-31T09:02:07;25.63;50.32
75457;SHT31;64036;48.266;14.192;2023-08-31T09:04:35;25.74;50.65
75457;SHT31;64036;48.266;14.192;2023-08-31T09:07:01;25.36;49.68
75457;SHT31;64036;48.266;14.192;2023-08-31T09:09:27;24.85;50.13
75457;SHT31;64036;48.266;14.192;2023-08-31T09:11:53;24.51;51.10
75457;SHT31;64036;48.266;14.192;2023-08-31T09:14:20;24.22;51.50
75457;SHT31;64036;48.266;14.192;2023-08-31T09:16:47;24.00;51.66
75457;SHT31;64036;48.266;14.192;2023-08-31T09:21:49;23.58;52.22
75457;SHT31;64036;48.266;14.192;2023-08-31T09:24:16;23.31;52.61
75457;SHT31;64036;48.266;14.192;2023-08-31T09:27:04;23.12;53.35
75457;SHT31;64036;48.266;14.192;2023-08-31T09:29:31;22.89;53.10
75457;SHT31;64036;48.266;14.192;2023-08-31T09:31:57;22.59;53.52
75457;SHT31;64036;48.266;14.192;2023-08-31T09:34:23;22.33;53.93
75457;SHT31;64036;48.266;14.192;2023-08-31T09:37:03;22.07;54.28
75457;SHT31;64036;48.266;14.192;2023-08-31T09:39:40;22.08;55.26
75457;SHT31;64036;48.266;14.192;2023-08-31T09:42:07;22.23;54.49
75457;SHT31;64036;48.266;14.192;2023-08-31T09:44:33;22.36;54.83
75457;SHT31;64036;48.266;14.192;2023-08-31T09:46:59;22.39;54.65
75457;SHT31;64036;48.266;14.192;2023-08-31T09:49:25;22.34;54.52
75457;SHT31;64036;48.266;14.192;2023-08-31T09:51:51;22.41;54.92
75457;SHT31;64036;48.266;14.192;2023-08-31T09:54:18;22.60;55.07
75457;SHT31;64036;48.266;14.192;2023-08-31T09:56:47;22.70;54.85
75457;SHT31;64036;48.266;14.192;2023-08-31T09:59:14;22.65;54.54
75457;SHT31;64036;48.266;14.192;2023-08-31T10:01:42;22.46;54.52
75457;SHT31;64036;48.266;14.192;2023-08-31T10:04:11;22.30;54.83
75457;SHT31;64036;48.266;14.192;2023-08-31T10:06:41;22.16;55.38
75457;SHT31;64036;48.266;14.192;2023-08-31T10:09:08;22.01;54.75
75457;SHT31;64036;48.266;14.192;2023-08-31T10:11:38;21.80;53.89
75457;SHT31;64036;48.266;14.192;2023-08-31T10:14:05;21.62;54.24
75457;SHT31;64036;48.266;14.192;2023-08-31T10:16:32;21.44;54.07
75457;SHT31;64036;48.266;14.192;2023-08-31T10:18:58;21.27;54.89
75457;SHT31;64036;48.266;14.192;2023-08-31T10:21:23;21.02;55.72
75457;SHT31;64036;48.266;14.192;2023-08-31T10:23:50;20.84;56.56
75457;SHT31;64036;48.266;14.192;2023-08-31T10:26:23;20.67;57.31
75457;SHT31;64036;48.266;14.192;2023-08-31T10:28:54;20.55;58.10
75457;SHT31;64036;48.266;14.192;2023-08-31T10:31:21;20.50;58.07
75457;SHT31;64036;48.266;14.192;2023-08-31T10:34:01;20.44;57.94
75457;SHT31;64036;48.266;14.192;2023-08-31T10:36:41;20.41;58.38
75457;SHT31;64036;48.266;14.192;2023-08-31T10:39:11;20.39;58.35
75457;SHT31;64036;48.266;14.192;2023-08-31T10:41:42;20.40;58.08
75457;SHT31;64036;48.266;14.192;2023-08-31T10:44:21;20.53;58.41
75457;SHT31;64036;48.266;14.192;2023-08-31T10:46:52;20.66;58.53
75457;SHT31;64036;48.266;14.192;2023-08-31T10:49:22;20.80;58.66
75457;SHT31;64036;48.266;14.192;2023-08-31T10:51:58;20.94;58.43
75457;SHT31;64036;48.266;14.192;2023-08-31T10:54:43;21.09;57.74
75457;SHT31;64036;48.266;14.192;2023-08-31T10:57:08;21.21;57.18
75457;SHT31;64036;48.266;14.192;2023-08-31T10:59:47;21.25;57.08
75457;SHT31;64036;48.266;14.192;2023-08-31T11:02:35;21.29;57.23
75457;SHT31;64036;48.266;14.192;2023-08-31T11:07:46;21.14;55.70
75457;SHT31;64036;48.266;14.192;2023-08-31T11:12:52;20.88;56.12
75457;SHT31;64036;48.266;14.192;2023-08-31T11:15:23;20.89;56.24
75457;SHT31;64036;48.266;14.192;2023-08-31T11:17:55;20.95;56.10
75457;SHT31;64036;48.266;14.192;2023-08-31T11:20:21;21.08;56.22
75457;SHT31;64036;48.266;14.192;2023-08-31T11:22:53;21.22;56.36
75457;SHT31;64036;48.266;14.192;2023-08-31T11:25:19;21.38;56.53
75457;SHT31;64036;48.266;14.192;2023-08-31T11:27:56;21.68;56.08
75457;SHT31;64036;48.266;14.192;2023-08-31T11:30:24;22.21;56.17
75457;SHT31;64036;48.266;14.192;2023-08-31T11:32:52;22.63;54.76
75457;SHT31;64036;48.266;14.192;2023-08-31T11:35:20;22.86;53.75
75457;SHT31;64036;48.266;14.192;2023-08-31T11:37:49;23.02;54.29
75457;SHT31;64036;48.266;14.192;2023-08-31T11:40:17;23.15;53.37
75457;SHT31;64036;48.266;14.192;2023-08-31T11:42:43;23.19;51.62
75457;SHT31;64036;48.266;14.192;2023-08-31T11:45:10;23.09;51.23
75457;SHT31;64036;48.266;14.192;2023-08-31T11:47:37;23.00;51.60
75457;SHT31;64036;48.266;14.192;2023-08-31T11:50:04;22.94;51.33
75457;SHT31;64036;48.266;14.192;2023-08-31T11:52:32;22.93;50.30
75457;SHT31;64036;48.266;14.192;2023-08-31T11:54:58;22.95;50.62
75457;SHT31;64036;48.266;14.192;2023-08-31T11:57:25;22.90;49.71
75457;SHT31;64036;48.266;14.192;2023-08-31T11:59:51;22.81;49.32
75457;SHT31;64036;48.266;14.192;2023-08-31T12:02:20;22.78;50.21
75457;SHT31;64036;48.266;14.192;2023-08-31T12:04:46;22.72;49.74
75457;SHT31;64036;48.266;14.192;2023-08-31T12:07:21;22.59;49.87
75457;SHT31;64036;48.266;14.192;2023-08-31T12:09:47;22.74;50.44
75457;SHT31;64036;48.266;14.192;2023-08-31T12:12:14;23.18;50.61
75457;SHT31;64036;48.266;14.192;2023-08-31T12:14:41;23.58;49.93
75457;SHT31;64036;48.266;14.192;2023-08-31T12:17:08;23.82;48.60
75457;SHT31;64036;48.266;14.192;2023-08-31T12:19:37;24.16;49.02
75457;SHT31;64036;48.266;14.192;2023-08-31T12:22:04;24.51;48.71
75457;SHT31;64036;48.266;14.192;2023-08-31T12:24:39;24.83;48.42
75457;SHT31;64036;48.266;14.192;2023-08-31T12:27:06;24.92;47.22
75457;SHT31;64036;48.266;14.192;2023-08-31T12:29:33;24.94;46.68
75457;SHT31;64036;48.266;14.192;2023-08-31T12:31:59;24.90;46.20
75457;SHT31;64036;48.266;14.192;2023-08-31T12:34:26;24.84;46.15
75457;SHT31;64036;48.266;14.192;2023-08-31T12:36:51;24.68;45.86
75457;SHT31;64036;48.266;14.192;2023-08-31T12:39:17;24.65;47.55
75457;SHT31;64036;48.266;14.192;2023-08-31T12:41:44;24.74;47.46
75457;SHT31;64036;48.266;14.192;2023-08-31T12:44:09;24.82;46.71
75457;SHT31;64036;48.266;14.192;2023-08-31T12:46:35;24.79;46.31
75457;SHT31;64036;48.266;14.192;2023-08-31T12:49:01;24.74;45.68
75457;SHT31;64036;48.266;14.192;2023-08-31T12:51:30;24.92;46.21
75457;SHT31;64036;48.266;14.192;2023-08-31T12:53:57;24.99;46.97
75457;SHT31;64036;48.266;14.192;2023-08-31T12:56:23;25.03;47.14
75457;SHT31;64036;48.266;14.192;2023-08-31T12:58:52;24.92;47.61
75457;SHT31;64036;48.266;14.192;2023-08-31T13:01:20;24.91;47.53
75457;SHT31;64036;48.266;14.192;2023-08-31T13:03:48;25.03;47.12
75457;SHT31;64036;48.266;14.192;2023-08-31T13:06:14;24.98;46.94
75457;SHT31;64036;48.266;14.192;2023-08-31T13:08:41;25.04;47.15
75457;SHT31;64036;48.266;14.192;2023-08-31T13:11:09;25.14;47.20
75457;SHT31;64036;48.266;14.192;2023-08-31T13:13:37;25.24;46.71
75457;SHT31;64036;48.266;14.192;2023-08-31T13:16:03;25.12;45.40
75457;SHT31;64036;48.266;14.192;2023-08-31T13:18:29;25.06;46.09
75457;SHT31;64036;48.266;14.192;2023-08-31T13:20:55;24.77;47.04
75457;SHT31;64036;48.266;14.192;2023-08-31T13:23:21;24.60;46.93
75457;SHT31;64036;48.266;14.192;2023-08-31T13:25:47;24.52;48.24
75457;SHT31;64036;48.266;14.192;2023-08-31T13:28:15;24.49;48.23
75457;SHT31;64036;48.266;14.192;2023-08-31T13:30:41;24.54;47.81
75457;SHT31;64036;48.266;14.192;2023-08-31T13:33:07;24.50;47.79
75457;SHT31;64036;48.266;14.192;2023-08-31T13:35:33;24.51;47.47
75457;SHT31;64036;48.266;14.192;2023-08-31T13:38:00;24.40;48.19
75457;SHT31;64036;48.266;14.192;2023-08-31T13:40:28;24.32;48.20
75457;SHT31;64036;48.266;14.192;2023-08-31T13:42:55;24.30;48.16
75457;SHT31;64036;48.266;14.192;2023-08-31T13:45:31;24.38;49.09
75457;SHT31;64036;48.266;14.192;2023-08-31T13:47:57;24.30;47.93
75457;SHT31;64036;48.266;14.192;2023-08-31T13:50:25;24.27;48.80
75457;SHT31;64036;48.266;14.192;2023-08-31T13:52:52;24.24;48.86
75457;SHT31;64036;48.266;14.192;2023-08-31T13:55:18;24.08;48.76
75457;SHT31;64036;48.266;14.192;2023-08-31T13:57:44;24.02;49.04
75457;SHT31;64036;48.266;14.192;2023-08-31T14:00:10;24.01;48.79
75457;SHT31;64036;48.266;14.192;2023-08-31T14:02:37;24.05;48.93
75457;SHT31;64036;48.266;14.192;2023-08-31T14:05:07;24.09;50.20
75457;SHT31;64036;48.266;14.192;2023-08-31T14:07:35;24.06;49.83
75457;SHT31;64036;48.266;14.192;2023-08-31T14:10:01;23.89;49.38
75457;SHT31;64036;48.266;14.192;2023-08-31T14:12:30;23.72;49.77
75457;SHT31;64036;48.266;14.192;2023-08-31T14:14:56;23.59;50.18
75457;SHT31;64036;48.266;14.192;2023-08-31T14:17:23;23.47;50.73
75457;SHT31;64036;48.266;14.192;2023-08-31T14:19:49;23.40;50.88
75457;SHT31;64036;48.266;14.192;2023-08-31T14:22:15;23.41;51.07
75457;SHT31;64036;48.266;14.192;2023-08-31T14:24:40;23.42;50.67
75457;SHT31;64036;48.266;14.192;2023-08-31T14:27:06;23.29;51.04
75457;SHT31;64036;48.266;14.192;2023-08-31T14:29:32;23.17;51.17
75457;SHT31;64036;48.266;14.192;2023-08-31T14:31:58;22.94;51.17
75457;SHT31;64036;48.266;14.192;2023-08-31T14:34:23;22.72;51.63
75457;SHT31;64036;48.266;14.192;2023-08-31T14:36:50;22.58;52.12
75457;SHT31;64036;48.266;14.192;2023-08-31T14:39:17;22.44;52.17
75457;SHT31;64036;48.266;14.192;2023-08-31T14:41:43;22.30;52.41
75457;SHT31;64036;48.266;14.192;2023-08-31T14:44:08;22.24;52.59
75457;SHT31;64036;48.266;14.192;2023-08-31T14:46:34;22.20;52.70
75457;SHT31;64036;48.266;14.192;2023-08-31T14:49:00;22.12;52.90
75457;SHT31;64036;48.266;14.192;2023-08-31T14:51:26;22.09;53.23
75457;SHT31;64036;48.266;14.192;2023-08-31T14:53:52;22.06;53.26
75457;SHT31;64036;48.266;14.192;2023-08-31T14:56:17;22.06;54.19
75457;SHT31;64036;48.266;14.192;2023-08-31T14:58:43;22.08;53.43
75457;SHT31;64036;48.266;14.192;2023-08-31T15:01:08;22.05;52.81
75457;SHT31;64036;48.266;14.192;2023-08-31T15:03:34;22.00;52.43
75457;SHT31;64036;48.266;14.192;2023-08-31T15:06:00;22.02;52.58
75457;SHT31;64036;48.266;14.192;2023-08-31T15:11:20;22.15;54.16
75457;SHT31;64036;48.266;14.192;2023-08-31T15:13:46;22.17;53.82
75457;SHT31;64036;48.266;14.192;2023-08-31T15:16:12;22.19;53.61
75457;SHT31;64036;48.266;14.192;2023-08-31T15:18:38;22.18;53.48
75457;SHT31;64036;48.266;14.192;2023-08-31T15:21:04;22.16;53.26
75457;SHT31;64036;48.266;14.192;2023-08-31T15:23:29;22.11;53.30
75457;SHT31;64036;48.266;14.192;2023-08-31T15:25:59;22.02;53.53
75457;SHT31;64036;48.266;14.192;2023-08-31T15:28:26;21.89;53.76
75457;SHT31;64036;48.266;14.192;2023-08-31T15:30:51;21.75;53.80
75457;SHT31;64036;48.266;14.192;2023-08-31T15:33:17;21.61;53.75